Vera Y Pintado, Argentina
Current Conditions -  °F | °C
As of 3:00 PM on Friday 19 Dec 2014 (Local Time) from SUSO Reporting Station
Few Clouds Few Clouds  
Wind Chill: 90°   Ceiling: Unl
Heat Index: 90°   Visibility: 6mi
Dew Point: 55°   Wind: 7mph
Humidity: 31%   Direction: 20°NNE
Pressure: 29.68"   Gusts: NA
Location:  30.15°S, 60.32°W
Report Text: SUSO 191800Z 02006KT 9999 FEW030 32/13 Q1005
Loading
Personal Weather Stations






























Interactive Weather Map New forecast layout! Learn more

10-Day Weather Forecast

Advertisements
Track Severe Weather on mobile